Time;durP1;ratioP1;P1;durP2;ratioP2;P2;SDS_P1;SDS_P2;PMS_P1;PMS_P2;Temp;Humidity;BMP_temperature;BMP_pressure;BME280_temperature;BME280_humidity;BME280_pressure;Samples;Min_cycle;Max_cycle;Signal;HPM_P1;HPM_P2
2021/09/04 00:00:06;;;;;;;9.70;5.43;;;;;;;;;;143741;578;46011;-54
2021/09/04 00:02:32;;;;;;;8.48;5.50;;;;;;;;;;143741;715;46020;-55
2021/09/04 00:04:59;;;;;;;9.70;5.80;;;;;;;;;;143743;588;46020;-55
2021/09/04 00:07:28;;;;;;;10.00;5.20;;;;;;;;;;143740;569;46021;-54
2021/09/04 00:09:55;;;;;;;11.15;6.05;;;;;;;;;;143740;569;47010;-55
2021/09/04 00:12:22;;;;;;;7.82;5.60;;;;;;;;;;143741;619;46020;-55
2021/09/04 00:14:49;;;;;;;10.20;5.72;;;;;;;;;;143743;603;46020;-54
2021/09/04 00:17:16;;;;;;;12.50;5.72;;;;;;;;;;143740;785;46020;-55
2021/09/04 00:19:43;;;;;;;12.82;6.00;;;;;;;;;;143741;608;46010;-55
2021/09/04 00:22:10;;;;;;;8.07;5.43;;;;;;;;;;143736;570;46021;-55
2021/09/04 00:24:37;;;;;;;9.05;5.50;;;;;;;;;;143743;566;46010;-54
2021/09/04 00:27:06;;;;;;;8.73;6.12;;;;;;;;;;143740;809;46020;-55
2021/09/04 00:29:35;;;;;;;8.52;5.75;;;;;;;;;;143740;569;46011;-54
2021/09/04 00:32:03;;;;;;;12.88;5.60;;;;;;;;;;143740;566;46021;-54
2021/09/04 00:34:30;;;;;;;16.25;5.65;;;;;;;;;;143742;564;46020;-55
2021/09/04 00:36:57;;;;;;;8.30;5.70;;;;;;;;;;143740;588;46021;-55
2021/09/04 00:39:24;;;;;;;8.60;5.28;;;;;;;;;;143741;751;46010;-55
2021/09/04 00:41:51;;;;;;;8.38;5.47;;;;;;;;;;143741;574;46020;-55
2021/09/04 00:44:20;;;;;;;9.55;5.87;;;;;;;;;;143746;662;46010;-55
2021/09/04 00:46:48;;;;;;;11.30;6.22;;;;;;;;;;143736;593;46020;-55
2021/09/04 00:49:15;;;;;;;12.85;6.60;;;;;;;;;;143738;624;46031;-55
2021/09/04 00:51:44;;;;;;;13.75;6.30;;;;;;;;;;143742;605;46020;-55
2021/09/04 00:54:11;;;;;;;10.05;6.20;;;;;;;;;;143742;587;46020;-55
2021/09/04 00:56:39;;;;;;;12.90;6.95;;;;;;;;;;143740;569;46044;-55
2021/09/04 00:59:08;;;;;;;9.82;6.18;;;;;;;;;;143740;584;46917;-55
2021/09/04 01:01:35;;;;;;;10.43;6.40;;;;;;;;;;143740;565;46021;-55
2021/09/04 01:04:03;;;;;;;11.02;6.20;;;;;;;;;;143746;571;46010;-55
2021/09/04 01:06:30;;;;;;;10.60;6.35;;;;;;;;;;143740;621;46021;-55
2021/09/04 01:08:57;;;;;;;7.72;5.53;;;;;;;;;;143741;645;46020;-54
2021/09/04 01:11:25;;;;;;;9.68;5.80;;;;;;;;;;143738;596;46020;-55
2021/09/04 01:13:52;;;;;;;11.02;6.12;;;;;;;;;;143743;582;46020;-54
2021/09/04 01:16:20;;;;;;;15.75;5.80;;;;;;;;;;143741;585;46020;-55
2021/09/04 01:18:46;;;;;;;11.80;6.30;;;;;;;;;;143741;590;46010;-55
2021/09/04 01:21:14;;;;;;;9.43;5.78;;;;;;;;;;143741;629;46020;-55
2021/09/04 01:23:41;;;;;;;8.23;6.25;;;;;;;;;;143744;635;46010;-54
2021/09/04 01:26:10;;;;;;;8.50;6.03;;;;;;;;;;143741;705;46020;-55
2021/09/04 01:28:39;;;;;;;9.82;5.60;;;;;;;;;;143738;576;46021;-54
2021/09/04 01:31:07;;;;;;;10.80;5.65;;;;;;;;;;143742;608;46021;-54
2021/09/04 01:33:41;;;;;;;8.40;5.85;;;;;;;;;;143743;592;46010;-54
2021/09/04 01:36:08;;;;;;;8.60;5.82;;;;;;;;;;143735;613;46022;-54
2021/09/04 01:38:35;;;;;;;12.82;6.72;;;;;;;;;;143741;644;46010;-54
2021/09/04 01:41:02;;;;;;;12.68;6.45;;;;;;;;;;143742;794;46020;-55
2021/09/04 01:43:29;;;;;;;9.50;5.82;;;;;;;;;;143742;691;46010;-54
2021/09/04 01:45:56;;;;;;;10.95;6.68;;;;;;;;;;143741;578;46020;-55
2021/09/04 01:48:23;;;;;;;15.25;10.35;;;;;;;;;;143743;575;46010;-55
2021/09/04 01:50:51;;;;;;;9.05;6.78;;;;;;;;;;143740;586;46020;-54
2021/09/04 01:53:17;;;;;;;8.02;5.90;;;;;;;;;;143744;575;46021;-54
2021/09/04 01:55:44;;;;;;;9.88;6.03;;;;;;;;;;143741;633;46020;-54
2021/09/04 01:58:11;;;;;;;11.75;6.12;;;;;;;;;;143742;624;46011;-55
2021/09/04 02:00:38;;;;;;;8.10;5.70;;;;;;;;;;143734;800;46026;-55
2021/09/04 02:03:05;;;;;;;11.75;6.82;;;;;;;;;;143742;614;46020;-54
2021/09/04 02:05:32;;;;;;;12.30;6.30;;;;;;;;;;143741;598;46022;-54
2021/09/04 02:08:00;;;;;;;8.93;6.20;;;;;;;;;;143742;584;46010;-54
2021/09/04 02:10:27;;;;;;;8.95;6.12;;;;;;;;;;143742;633;46020;-55
2021/09/04 02:12:54;;;;;;;10.60;6.60;;;;;;;;;;143744;589;46010;-54
2021/09/04 02:15:21;;;;;;;13.40;8.45;;;;;;;;;;143741;625;46023;-54
2021/09/04 02:17:48;;;;;;;12.20;7.90;;;;;;;;;;143743;616;46010;-55
2021/09/04 02:20:15;;;;;;;8.70;5.72;;;;;;;;;;143742;566;46020;-55
2021/09/04 02:22:42;;;;;;;12.05;7.75;;;;;;;;;;143744;693;46021;-54
2021/09/04 02:25:09;;;;;;;16.60;7.00;;;;;;;;;;143736;587;46020;-54
2021/09/04 02:27:37;;;;;;;11.95;7.78;;;;;;;;;;143742;746;46011;-54
2021/09/04 02:30:08;;;;;;;10.05;6.37;;;;;;;;;;143743;655;46021;-54
2021/09/04 02:32:35;;;;;;;8.68;6.15;;;;;;;;;;143744;641;46012;-55
2021/09/04 02:35:03;;;;;;;10.68;6.32;;;;;;;;;;143743;646;46021;-55
2021/09/04 02:37:30;;;;;;;10.38;6.47;;;;;;;;;;143743;749;46010;-54
2021/09/04 02:39:57;;;;;;;10.23;7.15;;;;;;;;;;143739;627;46020;-54
2021/09/04 02:42:24;;;;;;;8.40;6.22;;;;;;;;;;143744;581;46010;-55
2021/09/04 02:44:51;;;;;;;8.65;6.90;;;;;;;;;;143740;623;46020;-55
2021/09/04 02:47:18;;;;;;;9.18;6.00;;;;;;;;;;143742;640;46020;-55
2021/09/04 02:49:45;;;;;;;10.20;6.22;;;;;;;;;;143736;621;46020;-55
2021/09/04 02:52:12;;;;;;;11.25;6.50;;;;;;;;;;143743;636;46021;-55
2021/09/04 02:54:39;;;;;;;10.38;6.70;;;;;;;;;;143741;588;46020;-55
2021/09/04 02:57:07;;;;;;;9.38;6.53;;;;;;;;;;143743;610;46010;-55
2021/09/04 02:59:34;;;;;;;11.30;5.70;;;;;;;;;;143743;618;46021;-54
2021/09/04 03:02:01;;;;;;;10.55;5.97;;;;;;;;;;143743;570;46020;-55
2021/09/04 03:04:28;;;;;;;9.65;6.50;;;;;;;;;;143744;575;46022;-54
2021/09/04 03:06:55;;;;;;;8.50;5.97;;;;;;;;;;143743;566;46010;-54
2021/09/04 03:09:22;;;;;;;8.02;6.30;;;;;;;;;;143744;635;46020;-55
2021/09/04 03:11:49;;;;;;;10.98;5.87;;;;;;;;;;143746;582;46010;-55
2021/09/04 03:14:16;;;;;;;10.68;6.00;;;;;;;;;;143737;657;46021;-54
2021/09/04 03:16:44;;;;;;;9.88;6.82;;;;;;;;;;143743;600;46010;-54
2021/09/04 03:19:11;;;;;;;13.38;6.80;;;;;;;;;;143742;614;46020;-55
2021/09/04 03:21:38;;;;;;;8.98;6.12;;;;;;;;;;143744;610;46011;-55
2021/09/04 03:24:05;;;;;;;9.77;6.25;;;;;;;;;;143741;599;46022;-54
2021/09/04 03:26:32;;;;;;;9.13;7.00;;;;;;;;;;143742;564;46010;-54
2021/09/04 03:28:59;;;;;;;10.90;6.70;;;;;;;;;;143742;609;46021;-54
2021/09/04 03:31:26;;;;;;;9.70;6.57;;;;;;;;;;143745;577;46010;-55
2021/09/04 03:33:53;;;;;;;11.12;6.12;;;;;;;;;;143741;611;47020;-55
2021/09/04 03:36:20;;;;;;;10.43;6.45;;;;;;;;;;143742;565;46010;-55
2021/09/04 03:38:47;;;;;;;7.90;6.35;;;;;;;;;;143736;620;46020;-55
2021/09/04 03:41:14;;;;;;;9.30;5.80;;;;;;;;;;143744;640;46020;-54
2021/09/04 03:43:41;;;;;;;9.95;6.12;;;;;;;;;;143740;592;46021;-54
2021/09/04 03:46:08;;;;;;;8.55;6.03;;;;;;;;;;143743;615;46010;-54
2021/09/04 03:48:35;;;;;;;14.35;6.43;;;;;;;;;;143743;569;46020;-54
2021/09/04 03:51:03;;;;;;;15.43;7.10;;;;;;;;;;143745;612;46021;-55
2021/09/04 03:53:30;;;;;;;9.73;5.95;;;;;;;;;;143742;608;46020;-54
2021/09/04 03:55:57;;;;;;;12.23;6.90;;;;;;;;;;143742;598;46010;-55
2021/09/04 03:58:24;;;;;;;11.93;6.70;;;;;;;;;;143742;564;46021;-54
2021/09/04 04:00:51;;;;;;;9.05;5.57;;;;;;;;;;143743;621;46020;-55
2021/09/04 04:03:18;;;;;;;15.25;6.20;;;;;;;;;;143738;566;46020;-55
2021/09/04 04:05:45;;;;;;;11.12;6.70;;;;;;;;;;143741;668;46010;-55
2021/09/04 04:08:13;;;;;;;22.23;12.13;;;;;;;;;;143743;641;46020;-55
2021/09/04 04:10:40;;;;;;;42.00;33.33;;;;;;;;;;143738;592;46020;-55
2021/09/04 04:13:07;;;;;;;50.20;37.55;;;;;;;;;;143740;570;46022;-54
2021/09/04 04:15:34;;;;;;;41.53;30.62;;;;;;;;;;143740;569;46010;-55
2021/09/04 04:18:02;;;;;;;21.00;12.23;;;;;;;;;;143740;611;46020;-54
2021/09/04 04:20:29;;;;;;;17.85;8.85;;;;;;;;;;143739;617;46021;-55
2021/09/04 04:22:56;;;;;;;22.58;9.18;;;;;;;;;;143740;581;46020;-55
2021/09/04 04:25:23;;;;;;;32.28;9.65;;;;;;;;;;143739;735;47010;-55
2021/09/04 04:27:50;;;;;;;22.40;8.38;;;;;;;;;;143736;575;46021;-54
2021/09/04 04:30:17;;;;;;;12.63;7.30;;;;;;;;;;143743;626;46020;-54
2021/09/04 04:32:44;;;;;;;19.37;8.20;;;;;;;;;;143742;603;46020;-54
2021/09/04 04:35:11;;;;;;;32.20;9.82;;;;;;;;;;143742;583;46010;-55
2021/09/04 04:37:39;;;;;;;33.22;26.92;;;;;;;;;;143741;624;46020;-54
2021/09/04 04:40:07;;;;;;;39.35;33.72;;;;;;;;;;143738;646;46020;-54
2021/09/04 04:42:34;;;;;;;31.50;25.85;;;;;;;;;;143739;701;46022;-54
2021/09/04 04:45:01;;;;;;;44.63;36.67;;;;;;;;;;143741;779;46010;-54
2021/09/04 04:47:28;;;;;;;48.80;38.13;;;;;;;;;;143740;603;46020;-54
2021/09/04 04:49:55;;;;;;;39.40;29.17;;;;;;;;;;143741;641;46012;-54
2021/09/04 04:52:22;;;;;;;31.60;20.70;;;;;;;;;;143736;612;46023;-54
2021/09/04 04:54:49;;;;;;;22.27;19.17;;;;;;;;;;143739;639;46010;-54
2021/09/04 04:57:16;;;;;;;24.98;17.80;;;;;;;;;;143741;584;46021;-54
2021/09/04 04:59:43;;;;;;;21.40;15.48;;;;;;;;;;143742;668;46020;-54
2021/09/04 05:02:10;;;;;;;25.58;20.52;;;;;;;;;;143740;647;46022;-54
2021/09/04 05:04:37;;;;;;;34.42;24.65;;;;;;;;;;143740;611;47010;-54
2021/09/04 05:07:04;;;;;;;31.95;18.77;;;;;;;;;;143740;601;46021;-54
2021/09/04 05:09:31;;;;;;;36.58;24.55;;;;;;;;;;143744;576;46012;-54
2021/09/04 05:11:58;;;;;;;23.40;19.23;;;;;;;;;;143740;611;46022;-54
2021/09/04 05:14:25;;;;;;;33.40;24.17;;;;;;;;;;143742;652;46010;-55
2021/09/04 05:16:53;;;;;;;27.33;21.33;;;;;;;;;;143735;650;46020;-54
2021/09/04 05:19:20;;;;;;;24.42;19.92;;;;;;;;;;143744;608;46010;-55
2021/09/04 05:21:47;;;;;;;29.40;16.60;;;;;;;;;;143740;878;46050;-55
2021/09/04 05:24:14;;;;;;;31.85;17.20;;;;;;;;;;143741;584;46010;-55
2021/09/04 05:26:41;;;;;;;22.02;15.55;;;;;;;;;;143740;627;46021;-55
2021/09/04 05:29:08;;;;;;;29.98;15.63;;;;;;;;;;143744;565;46010;-56
2021/09/04 05:31:35;;;;;;;19.33;11.55;;;;;;;;;;143741;615;46022;-55
2021/09/04 05:34:02;;;;;;;24.60;13.18;;;;;;;;;;143743;625;46011;-55
2021/09/04 05:36:29;;;;;;;16.35;11.12;;;;;;;;;;143740;597;46021;-55
2021/09/04 05:38:56;;;;;;;22.23;11.18;;;;;;;;;;143747;575;46010;-55
2021/09/04 05:41:23;;;;;;;21.48;10.57;;;;;;;;;;143736;619;46033;-53
2021/09/04 05:43:50;;;;;;;19.83;14.73;;;;;;;;;;143742;671;46010;-53
2021/09/04 05:46:17;;;;;;;22.15;14.27;;;;;;;;;;143741;573;46020;-53
2021/09/04 05:48:44;;;;;;;25.25;13.57;;;;;;;;;;143743;565;46010;-53
2021/09/04 05:51:11;;;;;;;18.60;13.60;;;;;;;;;;143742;574;46023;-53
2021/09/04 05:53:39;;;;;;;19.75;14.07;;;;;;;;;;143741;586;46010;-53
2021/09/04 05:56:06;;;;;;;16.23;11.70;;;;;;;;;;143742;570;46020;-53
2021/09/04 05:58:33;;;;;;;19.17;11.75;;;;;;;;;;143744;578;46011;-53
2021/09/04 06:01:01;;;;;;;17.83;11.95;;;;;;;;;;143742;573;46022;-55
2021/09/04 06:03:28;;;;;;;22.77;11.63;;;;;;;;;;143742;685;46010;-54
2021/09/04 06:05:57;;;;;;;16.20;10.27;;;;;;;;;;143736;622;46021;-54
2021/09/04 06:08:27;;;;;;;20.17;12.23;;;;;;;;;;143739;666;46020;-54
2021/09/04 06:10:54;;;;;;;13.80;8.80;;;;;;;;;;143740;567;46022;-54
2021/09/04 06:13:21;;;;;;;14.85;8.18;;;;;;;;;;143743;637;46010;-53
2021/09/04 06:15:48;;;;;;;16.87;7.72;;;;;;;;;;143742;582;46020;-54
2021/09/04 06:18:15;;;;;;;12.77;7.90;;;;;;;;;;143746;580;46010;-53
2021/09/04 06:20:42;;;;;;;17.40;11.95;;;;;;;;;;143742;645;46020;-54
2021/09/04 06:23:09;;;;;;;19.85;10.88;;;;;;;;;;143742;583;46010;-54
2021/09/04 06:25:38;;;;;;;15.23;12.25;;;;;;;;;;143737;576;46020;-55
2021/09/04 06:28:05;;;;;;;16.48;11.23;;;;;;;;;;143743;587;46021;-55
2021/09/04 06:30:32;;;;;;;23.87;17.37;;;;;;;;;;143733;627;46022;-55
2021/09/04 06:32:59;;;;;;;14.73;9.50;;;;;;;;;;143738;734;47011;-55
2021/09/04 06:35:26;;;;;;;13.75;9.77;;;;;;;;;;143740;592;46021;-54
2021/09/04 06:37:53;;;;;;;13.75;9.38;;;;;;;;;;143742;621;46010;-54
2021/09/04 06:40:20;;;;;;;14.02;8.65;;;;;;;;;;143740;564;46020;-54
2021/09/04 06:42:47;;;;;;;15.63;11.82;;;;;;;;;;143741;580;46010;-54
2021/09/04 06:45:14;;;;;;;16.25;12.15;;;;;;;;;;143739;572;46020;-54
2021/09/04 06:47:41;;;;;;;11.50;8.20;;;;;;;;;;143744;590;46010;-54
2021/09/04 06:50:09;;;;;;;15.60;10.93;;;;;;;;;;143740;575;46021;-54
2021/09/04 06:52:36;;;;;;;16.50;12.05;;;;;;;;;;143738;581;46010;-54
2021/09/04 06:55:03;;;;;;;16.85;10.60;;;;;;;;;;143732;563;46020;-53
2021/09/04 06:57:30;;;;;;;12.27;7.12;;;;;;;;;;143744;588;46011;-53
2021/09/04 06:59:57;;;;;;;15.38;7.62;;;;;;;;;;143740;579;46020;-54
2021/09/04 07:02:24;;;;;;;15.77;11.85;;;;;;;;;;143741;584;46010;-53
2021/09/04 07:04:51;;;;;;;12.27;7.43;;;;;;;;;;143740;596;46021;-54
2021/09/04 07:07:18;;;;;;;9.55;6.50;;;;;;;;;;143743;581;46010;-53
2021/09/04 07:09:45;;;;;;;12.70;8.52;;;;;;;;;;143738;564;47022;-53
2021/09/04 07:12:12;;;;;;;12.82;9.18;;;;;;;;;;143741;594;46010;-53
2021/09/04 07:14:39;;;;;;;13.88;9.07;;;;;;;;;;143740;587;46020;-54
2021/09/04 07:17:06;;;;;;;12.48;8.52;;;;;;;;;;143744;590;46010;-54
2021/09/04 07:19:33;;;;;;;13.25;6.95;;;;;;;;;;143735;603;46021;-54
2021/09/04 07:22:00;;;;;;;12.70;7.03;;;;;;;;;;143741;653;46010;-54
2021/09/04 07:24:27;;;;;;;16.48;9.30;;;;;;;;;;143739;590;46020;-53
2021/09/04 07:26:54;;;;;;;10.30;7.03;;;;;;;;;;143742;579;46011;-54
2021/09/04 07:29:21;;;;;;;10.13;6.68;;;;;;;;;;143739;564;46020;-54
2021/09/04 07:31:48;;;;;;;13.48;7.87;;;;;;;;;;143740;606;46010;-53
2021/09/04 07:34:15;;;;;;;16.35;6.28;;;;;;;;;;143739;567;46021;-53
2021/09/04 07:36:42;;;;;;;13.05;8.63;;;;;;;;;;143741;603;46020;-53
2021/09/04 07:39:09;;;;;;;10.68;6.50;;;;;;;;;;143738;601;47022;-53
2021/09/04 07:41:36;;;;;;;10.10;6.43;;;;;;;;;;143740;738;46011;-54
2021/09/04 07:44:03;;;;;;;10.85;6.12;;;;;;;;;;143734;591;46020;-53
2021/09/04 07:46:30;;;;;;;9.70;6.18;;;;;;;;;;143741;583;46020;-53
2021/09/04 07:48:57;;;;;;;14.27;6.07;;;;;;;;;;143739;677;46022;-54
2021/09/04 07:51:24;;;;;;;8.23;6.15;;;;;;;;;;143742;623;46010;-53
2021/09/04 07:53:51;;;;;;;8.07;5.18;;;;;;;;;;143741;571;46020;-53
2021/09/04 07:56:18;;;;;;;13.85;9.98;;;;;;;;;;143741;602;46020;-54
2021/09/04 07:58:45;;;;;;;19.77;12.82;;;;;;;;;;143738;593;46020;-53
2021/09/04 08:01:12;;;;;;;16.12;11.98;;;;;;;;;;143740;592;46010;-54
2021/09/04 08:03:39;;;;;;;21.80;14.10;;;;;;;;;;143737;585;46029;-54
2021/09/04 08:06:06;;;;;;;16.37;10.32;;;;;;;;;;143741;576;46020;-54
2021/09/04 08:08:33;;;;;;;14.35;11.40;;;;;;;;;;143733;567;46048;-54
2021/09/04 08:11:00;;;;;;;8.18;4.93;;;;;;;;;;143739;603;46010;-53
2021/09/04 08:13:27;;;;;;;10.93;6.45;;;;;;;;;;143741;564;46021;-53
2021/09/04 08:15:54;;;;;;;12.68;9.18;;;;;;;;;;143741;579;46020;-53
2021/09/04 08:18:21;;;;;;;11.05;7.65;;;;;;;;;;143739;615;46021;-53
2021/09/04 08:20:49;;;;;;;19.42;15.13;;;;;;;;;;143741;582;46010;-53
2021/09/04 08:23:16;;;;;;;12.23;7.80;;;;;;;;;;143738;564;46020;-54
2021/09/04 08:25:44;;;;;;;10.45;8.13;;;;;;;;;;143742;570;46019;-54
2021/09/04 08:28:11;;;;;;;9.63;5.43;;;;;;;;;;143740;599;46020;-54
2021/09/04 08:30:39;;;;;;;12.93;7.93;;;;;;;;;;143738;606;46010;-54
2021/09/04 08:33:06;;;;;;;15.75;9.52;;;;;;;;;;143732;591;46911;-53
2021/09/04 08:35:33;;;;;;;14.23;8.93;;;;;;;;;;143741;597;46020;-53
2021/09/04 08:38:06;;;;;;;13.62;8.45;;;;;;;;;;143739;600;46020;-53
2021/09/04 08:40:34;;;;;;;16.87;11.87;;;;;;;;;;143741;613;46010;-54
2021/09/04 08:43:01;;;;;;;16.90;11.52;;;;;;;;;;143740;593;46021;-54
2021/09/04 08:45:28;;;;;;;12.40;8.70;;;;;;;;;;143743;668;46010;-54
2021/09/04 08:47:56;;;;;;;11.85;8.63;;;;;;;;;;143739;613;46021;-54
2021/09/04 08:50:25;;;;;;;9.50;5.97;;;;;;;;;;143741;686;46010;-54
2021/09/04 08:52:53;;;;;;;9.85;5.30;;;;;;;;;;143741;569;46020;-55
2021/09/04 08:55:21;;;;;;;6.80;5.22;;;;;;;;;;143741;597;46020;-54
2021/09/04 08:57:49;;;;;;;8.10;5.32;;;;;;;;;;143735;634;46020;-53
2021/09/04 09:00:33;;;;;;;10.75;7.05;;;;;;;;;;143740;683;46010;-54
2021/09/04 09:03:01;;;;;;;8.48;6.47;;;;;;;;;;143742;673;46020;-54
2021/09/04 09:05:43;;;;;;;10.85;6.32;;;;;;;;;;143742;773;46020;-54
2021/09/04 09:08:30;;;;;;;8.45;6.53;;;;;;;;;;143739;564;46020;-53
2021/09/04 09:11:00;;;;;;;7.93;4.18;;;;;;;;;;143741;672;46010;-54
2021/09/04 09:13:29;;;;;;;15.60;7.68;;;;;;;;;;143740;581;46020;-54
2021/09/04 09:15:56;;;;;;;11.77;9.57;;;;;;;;;;143738;732;46010;-53
2021/09/04 09:18:28;;;;;;;10.07;6.65;;;;;;;;;;143740;566;46022;-53
2021/09/04 09:21:00;;;;;;;10.05;6.50;;;;;;;;;;143740;577;46020;-53
2021/09/04 09:23:28;;;;;;;13.27;6.57;;;;;;;;;;143734;654;46020;-53
2021/09/04 09:25:55;;;;;;;13.90;7.50;;;;;;;;;;143744;628;46020;-54
2021/09/04 09:28:24;;;;;;;8.90;5.05;;;;;;;;;;143740;679;46020;-53
2021/09/04 09:30:53;;;;;;;8.98;5.93;;;;;;;;;;143739;622;46010;-54
2021/09/04 09:33:21;;;;;;;10.43;8.02;;;;;;;;;;143739;672;46021;-53
2021/09/04 09:35:54;;;;;;;12.88;8.68;;;;;;;;;;143742;581;46010;-55
2021/09/04 09:38:28;;;;;;;9.18;4.97;;;;;;;;;;143740;585;46020;-55
2021/09/04 09:40:59;;;;;;;10.45;7.37;;;;;;;;;;143741;698;46010;-54
2021/09/04 09:43:29;;;;;;;9.40;6.15;;;;;;;;;;143739;666;46020;-54
2021/09/04 09:45:58;;;;;;;23.77;8.48;;;;;;;;;;143739;658;46020;-54
2021/09/04 09:48:31;;;;;;;11.00;6.22;;;;;;;;;;143735;569;46021;-53
2021/09/04 09:51:03;;;;;;;8.80;5.63;;;;;;;;;;143740;707;46010;-54
2021/09/04 09:53:30;;;;;;;9.75;5.82;;;;;;;;;;143739;574;46020;-53
2021/09/04 09:56:00;;;;;;;11.93;5.82;;;;;;;;;;143742;637;46021;-53
2021/09/04 09:58:28;;;;;;;12.25;5.70;;;;;;;;;;143737;578;47020;-53
2021/09/04 10:00:58;;;;;;;8.07;6.03;;;;;;;;;;143740;628;47010;-53
2021/09/04 10:03:26;;;;;;;7.82;5.85;;;;;;;;;;143740;599;46021;-54
2021/09/04 10:05:55;;;;;;;8.43;6.10;;;;;;;;;;143742;676;46020;-53
2021/09/04 10:08:25;;;;;;;8.43;5.40;;;;;;;;;;143740;610;46020;-53
2021/09/04 10:10:52;;;;;;;7.93;5.30;;;;;;;;;;143741;590;46010;-53
2021/09/04 10:13:20;;;;;;;9.98;5.10;;;;;;;;;;143735;588;46020;-53
2021/09/04 10:15:52;;;;;;;10.85;5.68;;;;;;;;;;143737;617;46010;-53
2021/09/04 10:18:24;;;;;;;7.50;5.28;;;;;;;;;;143739;642;47021;-54
2021/09/04 10:21:11;;;;;;;8.32;5.47;;;;;;;;;;143740;565;46010;-53
2021/09/04 10:23:48;;;;;;;7.80;5.68;;;;;;;;;;143739;807;46020;-53
2021/09/04 10:26:33;;;;;;;11.02;5.20;;;;;;;;;;143741;581;46021;-53
2021/09/04 10:29:17;;;;;;;7.60;5.55;;;;;;;;;;143740;674;46022;-53
2021/09/04 10:32:05;;;;;;;10.45;5.47;;;;;;;;;;143740;633;46011;-53
2021/09/04 10:34:40;;;;;;;7.78;5.57;;;;;;;;;;143741;581;45911;-53
2021/09/04 10:37:18;;;;;;;7.45;4.80;;;;;;;;;;143744;579;46020;-53
2021/09/04 10:39:50;;;;;;;11.18;5.57;;;;;;;;;;143734;577;46022;-53
2021/09/04 10:42:43;;;;;;;8.27;5.12;;;;;;;;;;143741;618;46010;-53
2021/09/04 10:45:15;;;;;;;8.40;4.72;;;;;;;;;;143740;604;46022;-53
2021/09/04 10:47:50;;;;;;;8.13;5.15;;;;;;;;;;143740;565;46020;-53
2021/09/04 10:50:26;;;;;;;8.85;4.95;;;;;;;;;;143739;613;46023;-53
2021/09/04 10:52:57;;;;;;;8.88;4.85;;;;;;;;;;143741;616;46010;-53
2021/09/04 10:55:35;;;;;;;9.48;5.28;;;;;;;;;;143741;626;46021;-54
2021/09/04 10:58:21;;;;;;;7.15;5.12;;;;;;;;;;143742;642;46020;-54
2021/09/04 11:00:52;;;;;;;8.60;5.30;;;;;;;;;;143740;580;46020;-53
2021/09/04 11:03:20;;;;;;;7.35;4.87;;;;;;;;;;143740;693;46010;-53
2021/09/04 11:05:56;;;;;;;7.28;5.40;;;;;;;;;;143733;593;46029;-53
2021/09/04 11:08:36;;;;;;;7.80;5.25;;;;;;;;;;143742;683;46020;-53
2021/09/04 11:11:20;;;;;;;7.82;5.43;;;;;;;;;;143740;638;46023;-52
2021/09/04 11:13:53;;;;;;;;;;;;;;;;;;143745;980;46010;-53
2021/09/04 11:16:37;;;;;;;10.18;5.47;;;;;;;;;;143744;622;46020;-52
2021/09/04 11:19:21;;;;;;;6.80;5.00;;;;;;;;;;143734;617;46021;-53
2021/09/04 11:22:14;;;;;;;7.45;5.10;;;;;;;;;;143740;673;46038;-53
2021/09/04 11:24:43;;;;;;;11.30;5.37;;;;;;;;;;143740;709;46010;-53
2021/09/04 11:27:15;;;;;;;9.27;5.47;;;;;;;;;;143739;705;46021;-52
2021/09/04 11:29:52;;;;;;;14.02;5.60;;;;;;;;;;143742;636;46010;-53
2021/09/04 11:32:26;;;;;;;9.50;5.05;;;;;;;;;;143736;629;46021;-53
2021/09/04 11:35:01;;;;;;;8.98;5.03;;;;;;;;;;143741;573;46010;-53
2021/09/04 11:37:39;;;;;;;6.50;4.85;;;;;;;;;;143740;591;46020;-53
2021/09/04 11:40:17;;;;;;;6.30;4.65;;;;;;;;;;143737;611;46021;-53
2021/09/04 11:42:49;;;;;;;10.50;5.35;;;;;;;;;;143738;603;46020;-52
2021/09/04 11:45:21;;;;;;;6.55;5.12;;;;;;;;;;143740;655;46010;-53
2021/09/04 11:47:52;;;;;;;8.25;5.37;;;;;;;;;;143741;572;46021;-53
2021/09/04 11:50:31;;;;;;;10.00;5.37;;;;;;;;;;143740;614;46020;-52
2021/09/04 11:53:00;;;;;;;8.30;4.55;;;;;;;;;;143737;708;46022;-53
2021/09/04 11:55:29;;;;;;;6.40;5.20;;;;;;;;;;143741;564;46010;-53
2021/09/04 11:58:01;;;;;;;8.65;5.60;;;;;;;;;;143734;582;46020;-53
2021/09/04 12:00:33;;;;;;;6.35;5.07;;;;;;;;;;143742;557;46020;-53
2021/09/04 12:03:07;;;;;;;6.28;4.87;;;;;;;;;;143739;676;46020;-53
2021/09/04 12:05:42;;;;;;;7.45;5.12;;;;;;;;;;143741;589;46010;-53
2021/09/04 12:08:21;;;;;;;7.65;5.40;;;;;;;;;;143740;599;46020;-53
2021/09/04 12:10:49;;;;;;;6.93;4.78;;;;;;;;;;143741;616;46021;-53
2021/09/04 12:13:21;;;;;;;10.45;5.35;;;;;;;;;;143740;574;46020;-53
2021/09/04 12:15:52;;;;;;;7.05;5.20;;;;;;;;;;143741;638;46010;-53
2021/09/04 12:18:31;;;;;;;7.43;5.00;;;;;;;;;;143734;614;46021;-53
2021/09/04 12:21:17;;;;;;;10.38;5.12;;;;;;;;;;143741;580;46020;-52
2021/09/04 12:23:48;;;;;;;8.93;5.37;;;;;;;;;;143736;585;46021;-53
2021/09/04 12:26:15;;;;;;;11.75;5.03;;;;;;;;;;143742;570;46010;-53
2021/09/04 12:28:43;;;;;;;8.15;4.93;;;;;;;;;;143738;592;46020;-53
2021/09/04 12:31:22;;;;;;;10.35;5.40;;;;;;;;;;143744;590;46020;-53
2021/09/04 12:34:07;;;;;;;6.53;4.55;;;;;;;;;;143739;588;46023;-53
2021/09/04 12:36:39;;;;;;;10.23;4.82;;;;;;;;;;143741;588;46010;-53
2021/09/04 12:39:21;;;;;;;7.97;5.35;;;;;;;;;;143741;603;46020;-53
2021/09/04 12:41:58;;;;;;;8.60;5.18;;;;;;;;;;143745;567;46010;-53
2021/09/04 12:44:38;;;;;;;7.80;4.53;;;;;;;;;;143741;600;46020;-53
2021/09/04 12:47:06;;;;;;;8.30;5.15;;;;;;;;;;143742;617;46011;-53
2021/09/04 12:49:36;;;;;;;6.18;4.95;;;;;;;;;;143735;606;46021;-53
2021/09/04 12:52:31;;;;;;;10.25;5.03;;;;;;;;;;143745;577;46010;-53
2021/09/04 12:54:59;;;;;;;6.45;4.55;;;;;;;;;;143741;573;46025;-53
2021/09/04 12:57:30;;;;;;;9.15;5.32;;;;;;;;;;143741;591;46010;-53
2021/09/04 13:00:05;;;;;;;9.35;4.70;;;;;;;;;;143740;580;46020;-53
2021/09/04 13:02:37;;;;;;;7.75;4.62;;;;;;;;;;143744;564;46011;-53
2021/09/04 13:05:24;;;;;;;8.50;4.80;;;;;;;;;;143740;607;46020;-53
2021/09/04 13:07:52;;;;;;;7.55;5.12;;;;;;;;;;143742;575;46010;-52
2021/09/04 13:10:25;;;;;;;7.00;4.95;;;;;;;;;;143740;649;46021;-53
2021/09/04 13:12:52;;;;;;;9.32;4.95;;;;;;;;;;143742;569;46010;-53
2021/09/04 13:15:20;;;;;;;8.10;4.80;;;;;;;;;;143735;578;46020;-53
2021/09/04 13:17:48;;;;;;;7.45;5.15;;;;;;;;;;143739;646;46011;-53
2021/09/04 13:20:16;;;;;;;7.20;4.87;;;;;;;;;;143741;659;46020;-53
2021/09/04 13:22:44;;;;;;;8.30;5.32;;;;;;;;;;143741;602;46020;-53
2021/09/04 13:25:14;;;;;;;10.07;5.28;;;;;;;;;;143740;606;46020;-53
2021/09/04 13:27:41;;;;;;;7.80;5.32;;;;;;;;;;143741;684;46010;-53
2021/09/04 13:30:09;;;;;;;6.47;4.62;;;;;;;;;;143740;625;46020;-53
2021/09/04 13:32:36;;;;;;;6.68;4.82;;;;;;;;;;143745;570;46010;-53
2021/09/04 13:35:04;;;;;;;7.90;5.25;;;;;;;;;;143740;634;46022;-53
2021/09/04 13:37:31;;;;;;;6.22;4.65;;;;;;;;;;143742;580;46010;-53
2021/09/04 13:39:58;;;;;;;7.22;4.80;;;;;;;;;;143736;578;46021;-53
2021/09/04 13:42:26;;;;;;;6.72;4.82;;;;;;;;;;143741;570;46020;-53
2021/09/04 13:44:53;;;;;;;8.48;5.03;;;;;;;;;;143741;600;46022;-53
2021/09/04 13:47:21;;;;;;;6.90;4.68;;;;;;;;;;143742;585;46010;-53
2021/09/04 13:49:48;;;;;;;8.18;5.30;;;;;;;;;;143740;587;46020;-53
2021/09/04 13:52:15;;;;;;;8.27;5.07;;;;;;;;;;143742;602;46020;-53
2021/09/04 13:54:42;;;;;;;9.40;5.18;;;;;;;;;;143740;570;46021;-53
2021/09/04 13:57:09;;;;;;;8.25;5.15;;;;;;;;;;143742;625;46010;-53
2021/09/04 13:59:36;;;;;;;8.68;4.97;;;;;;;;;;143741;590;46020;-53
2021/09/04 14:02:03;;;;;;;9.30;5.40;;;;;;;;;;143742;576;46021;-53
2021/09/04 14:04:30;;;;;;;9.05;5.10;;;;;;;;;;143735;567;46020;-53
2021/09/04 14:06:57;;;;;;;6.70;4.72;;;;;;;;;;143741;586;46018;-53
2021/09/04 14:09:24;;;;;;;9.52;5.22;;;;;;;;;;143742;588;46021;-53
2021/09/04 14:11:51;;;;;;;9.55;5.25;;;;;;;;;;143742;586;46020;-53
2021/09/04 14:14:18;;;;;;;9.38;4.90;;;;;;;;;;143740;585;46020;-53
2021/09/04 14:16:45;;;;;;;8.30;4.57;;;;;;;;;;143742;577;46010;-53
2021/09/04 14:19:12;;;;;;;9.98;5.37;;;;;;;;;;143742;569;46020;-53
2021/09/04 14:21:39;;;;;;;7.03;5.03;;;;;;;;;;143740;580;46020;-53
2021/09/04 14:24:06;;;;;;;11.00;5.25;;;;;;;;;;143741;602;46021;-53
2021/09/04 14:26:33;;;;;;;10.60;5.20;;;;;;;;;;143742;576;47010;-53
2021/09/04 14:29:00;;;;;;;8.25;5.95;;;;;;;;;;143738;629;46020;-53
2021/09/04 14:31:27;;;;;;;11.57;6.28;;;;;;;;;;143744;603;46010;-53
2021/09/04 14:33:54;;;;;;;7.53;5.12;;;;;;;;;;143744;582;46020;-53
2021/09/04 14:36:21;;;;;;;7.18;5.30;;;;;;;;;;143743;580;46010;-53
2021/09/04 14:38:49;;;;;;;9.43;5.45;;;;;;;;;;143738;570;46021;-53
2021/09/04 14:41:16;;;;;;;9.45;5.28;;;;;;;;;;143742;599;46020;-53
2021/09/04 14:43:42;;;;;;;7.20;5.15;;;;;;;;;;143740;615;46020;-53